sensor_id;sensor_type;location;lat;lon;timestamp;pressure;altitude;pressure_sealevel;temperature;humidity
11542;BME280;5827;49.482;7.716;2023-04-30T00:01:35;99215.75;;;12.65;96.16
11542;BME280;5827;49.482;7.716;2023-04-30T00:03:36;99220.44;;;12.75;95.94
11542;BME280;5827;49.482;7.716;2023-04-30T00:05:38;99222.47;;;12.68;96.57
11542;BME280;5827;49.482;7.716;2023-04-30T00:07:40;99233.56;;;12.88;94.25
11542;BME280;5827;49.482;7.716;2023-04-30T00:09:41;99229.97;;;12.83;94.94
11542;BME280;5827;49.482;7.716;2023-04-30T00:11:43;99228.53;;;12.75;94.76
11542;BME280;5827;49.482;7.716;2023-04-30T00:13:46;99220.47;;;12.58;96.62
11542;BME280;5827;49.482;7.716;2023-04-30T00:15:47;99217.75;;;12.58;96.51
11542;BME280;5827;49.482;7.716;2023-04-30T00:17:49;99218.09;;;12.79;95.56
11542;BME280;5827;49.482;7.716;2023-04-30T00:19:50;99221.34;;;12.64;96.33
11542;BME280;5827;49.482;7.716;2023-04-30T00:21:52;99209.88;;;12.52;96.49
11542;BME280;5827;49.482;7.716;2023-04-30T00:23:53;99218.75;;;12.52;96.04
11542;BME280;5827;49.482;7.716;2023-04-30T00:25:55;99216.78;;;12.64;95.76
11542;BME280;5827;49.482;7.716;2023-04-30T00:27:56;99220.94;;;12.72;95.48
11542;BME280;5827;49.482;7.716;2023-04-30T00:29:59;99216.78;;;12.64;95.44
11542;BME280;5827;49.482;7.716;2023-04-30T00:32:01;99210.59;;;12.64;95.96
11542;BME280;5827;49.482;7.716;2023-04-30T00:34:02;99216.16;;;12.57;96.57
11542;BME280;5827;49.482;7.716;2023-04-30T00:36:04;99212.56;;;12.35;97.83
11542;BME280;5827;49.482;7.716;2023-04-30T00:38:06;99210.78;;;12.57;97.05
11542;BME280;5827;49.482;7.716;2023-04-30T00:40:08;99223.00;;;12.65;96.70
11542;BME280;5827;49.482;7.716;2023-04-30T00:42:10;99222.41;;;12.63;96.88
11542;BME280;5827;49.482;7.716;2023-04-30T00:44:11;99218.34;;;12.43;98.41
11542;BME280;5827;49.482;7.716;2023-04-30T00:46:14;99219.22;;;12.32;98.86
11542;BME280;5827;49.482;7.716;2023-04-30T00:48:16;99224.34;;;12.51;97.84
11542;BME280;5827;49.482;7.716;2023-04-30T00:50:18;99217.03;;;12.63;98.01
11542;BME280;5827;49.482;7.716;2023-04-30T00:52:19;99219.97;;;12.61;96.87
11542;BME280;5827;49.482;7.716;2023-04-30T00:54:22;99226.50;;;12.65;97.17
11542;BME280;5827;49.482;7.716;2023-04-30T00:56:24;99219.16;;;12.61;97.67
11542;BME280;5827;49.482;7.716;2023-04-30T00:58:26;99217.75;;;12.58;98.11
11542;BME280;5827;49.482;7.716;2023-04-30T01:00:28;99214.53;;;12.56;98.17
11542;BME280;5827;49.482;7.716;2023-04-30T01:02:31;99209.63;;;12.53;99.01
11542;BME280;5827;49.482;7.716;2023-04-30T01:04:34;99208.56;;;12.54;99.07
11542;BME280;5827;49.482;7.716;2023-04-30T01:06:35;99215.41;;;12.62;98.35
11542;BME280;5827;49.482;7.716;2023-04-30T01:08:37;99211.72;;;12.68;97.50
11542;BME280;5827;49.482;7.716;2023-04-30T01:10:45;99203.59;;;12.46;97.96
11542;BME280;5827;49.482;7.716;2023-04-30T01:12:55;99209.81;;;12.46;97.96
11542;BME280;5827;49.482;7.716;2023-04-30T01:15:03;99199.84;;;12.64;97.93
11542;BME280;5827;49.482;7.716;2023-04-30T01:17:16;99210.19;;;12.72;97.69
11542;BME280;5827;49.482;7.716;2023-04-30T01:19:30;99208.38;;;12.78;97.32
11542;BME280;5827;49.482;7.716;2023-04-30T01:21:38;99206.69;;;12.71;97.20
11542;BME280;5827;49.482;7.716;2023-04-30T01:23:52;99207.22;;;12.73;96.02
11542;BME280;5827;49.482;7.716;2023-04-30T01:26:09;99206.34;;;12.68;96.70
11542;BME280;5827;49.482;7.716;2023-04-30T01:28:14;99204.25;;;12.70;96.92
11542;BME280;5827;49.482;7.716;2023-04-30T01:30:17;99195.53;;;12.46;98.20
11542;BME280;5827;49.482;7.716;2023-04-30T01:32:19;99201.63;;;12.58;96.70
11542;BME280;5827;49.482;7.716;2023-04-30T01:34:20;99199.69;;;12.70;97.35
11542;BME280;5827;49.482;7.716;2023-04-30T01:36:32;99206.19;;;12.75;95.66
11542;BME280;5827;49.482;7.716;2023-04-30T01:38:49;99203.25;;;12.76;96.49
11542;BME280;5827;49.482;7.716;2023-04-30T01:41:00;99208.88;;;12.75;96.93
11542;BME280;5827;49.482;7.716;2023-04-30T01:43:11;99210.44;;;12.70;96.90
11542;BME280;5827;49.482;7.716;2023-04-30T01:45:26;99210.09;;;12.67;97.72
11542;BME280;5827;49.482;7.716;2023-04-30T01:47:37;99207.50;;;12.72;97.99
11542;BME280;5827;49.482;7.716;2023-04-30T01:49:50;99207.69;;;12.65;98.20
11542;BME280;5827;49.482;7.716;2023-04-30T01:52:02;99219.56;;;12.69;98.32
11542;BME280;5827;49.482;7.716;2023-04-30T01:54:16;99216.28;;;12.67;98.09
11542;BME280;5827;49.482;7.716;2023-04-30T01:56:24;99214.53;;;12.56;97.81
11542;BME280;5827;49.482;7.716;2023-04-30T01:58:28;99210.78;;;12.57;97.72
11542;BME280;5827;49.482;7.716;2023-04-30T02:00:32;99210.50;;;12.59;97.70
11542;BME280;5827;49.482;7.716;2023-04-30T02:02:34;99210.78;;;12.57;98.08
11542;BME280;5827;49.482;7.716;2023-04-30T02:04:35;99210.19;;;12.55;97.75
11542;BME280;5827;49.482;7.716;2023-04-30T02:06:37;99210.78;;;12.57;96.85
11542;BME280;5827;49.482;7.716;2023-04-30T02:08:40;99211.72;;;12.68;96.12
11542;BME280;5827;49.482;7.716;2023-04-30T02:10:41;99207.28;;;12.57;97.26
11542;BME280;5827;49.482;7.716;2023-04-30T02:12:43;99206.47;;;12.56;97.23
11542;BME280;5827;49.482;7.716;2023-04-30T02:14:45;99203.50;;;12.58;97.48
11542;BME280;5827;49.482;7.716;2023-04-30T02:16:47;99198.88;;;12.53;97.48
11542;BME280;5827;49.482;7.716;2023-04-30T02:18:49;99193.44;;;12.48;97.89
11542;BME280;5827;49.482;7.716;2023-04-30T02:20:51;99199.28;;;12.45;97.80
11542;BME280;5827;49.482;7.716;2023-04-30T02:22:52;99206.19;;;12.41;98.14
11542;BME280;5827;49.482;7.716;2023-04-30T02:24:54;99209.88;;;12.35;98.17
11542;BME280;5827;49.482;7.716;2023-04-30T02:26:56;99211.28;;;12.37;98.23
11542;BME280;5827;49.482;7.716;2023-04-30T02:28:58;99208.41;;;12.44;98.03
11542;BME280;5827;49.482;7.716;2023-04-30T02:30:59;99206.03;;;12.31;98.27
11542;BME280;5827;49.482;7.716;2023-04-30T02:33:02;99206.84;;;12.31;98.26
11542;BME280;5827;49.482;7.716;2023-04-30T02:35:05;99208.72;;;12.31;98.04
11542;BME280;5827;49.482;7.716;2023-04-30T02:37:06;99211.91;;;12.11;98.46
11542;BME280;5827;49.482;7.716;2023-04-30T02:39:08;99201.00;;;12.34;97.39
11542;BME280;5827;49.482;7.716;2023-04-30T02:41:10;99209.53;;;12.31;97.48
11542;BME280;5827;49.482;7.716;2023-04-30T02:43:11;99214.03;;;12.42;97.42
11542;BME280;5827;49.482;7.716;2023-04-30T02:45:13;99209.22;;;12.11;98.54
11542;BME280;5827;49.482;7.716;2023-04-30T02:47:14;99217.91;;;12.18;98.61
11542;BME280;5827;49.482;7.716;2023-04-30T02:49:17;99213.84;;;12.32;98.36
11542;BME280;5827;49.482;7.716;2023-04-30T02:51:19;99209.63;;;12.19;98.43
11542;BME280;5827;49.482;7.716;2023-04-30T02:53:20;99208.66;;;12.26;98.42
11542;BME280;5827;49.482;7.716;2023-04-30T02:55:22;99207.59;;;12.10;99.58
11542;BME280;5827;49.482;7.716;2023-04-30T02:57:23;99208.47;;;12.15;99.35
11542;BME280;5827;49.482;7.716;2023-04-30T02:59:25;99212.00;;;12.33;98.16
11542;BME280;5827;49.482;7.716;2023-04-30T03:01:27;99207.50;;;12.21;98.54
11542;BME280;5827;49.482;7.716;2023-04-30T03:03:28;99206.59;;;12.16;99.12
11542;BME280;5827;49.482;7.716;2023-04-30T03:05:31;99205.97;;;12.26;98.73
11542;BME280;5827;49.482;7.716;2023-04-30T03:07:33;99208.06;;;11.78;100.00
11542;BME280;5827;49.482;7.716;2023-04-30T03:09:35;99207.53;;;11.93;100.00
11542;BME280;5827;49.482;7.716;2023-04-30T03:11:36;99201.28;;;11.76;100.00
11542;BME280;5827;49.482;7.716;2023-04-30T03:13:38;99204.06;;;12.09;99.25
11542;BME280;5827;49.482;7.716;2023-04-30T03:15:40;99197.97;;;11.97;99.75
11542;BME280;5827;49.482;7.716;2023-04-30T03:17:41;99206.66;;;12.04;98.96
11542;BME280;5827;49.482;7.716;2023-04-30T03:19:43;99201.72;;;12.13;98.54
11542;BME280;5827;49.482;7.716;2023-04-30T03:21:46;99200.09;;;12.29;98.55
11542;BME280;5827;49.482;7.716;2023-04-30T03:23:47;99199.41;;;12.05;98.06
11542;BME280;5827;49.482;7.716;2023-04-30T03:25:49;99193.25;;;12.21;96.99
11542;BME280;5827;49.482;7.716;2023-04-30T03:27:50;99185.75;;;12.06;98.61
11542;BME280;5827;49.482;7.716;2023-04-30T03:29:52;99193.72;;;12.18;98.10
11542;BME280;5827;49.482;7.716;2023-04-30T03:31:53;99192.91;;;12.01;97.81
11542;BME280;5827;49.482;7.716;2023-04-30T03:33:55;99189.44;;;12.17;97.81
11542;BME280;5827;49.482;7.716;2023-04-30T03:35:56;99196.78;;;12.38;95.74
11542;BME280;5827;49.482;7.716;2023-04-30T03:38:00;99191.22;;;12.11;97.75
11542;BME280;5827;49.482;7.716;2023-04-30T03:40:01;99194.41;;;12.25;97.29
11542;BME280;5827;49.482;7.716;2023-04-30T03:42:03;99198.97;;;12.25;96.21
11542;BME280;5827;49.482;7.716;2023-04-30T03:44:05;99196.28;;;12.25;96.39
11542;BME280;5827;49.482;7.716;2023-04-30T03:46:14;99194.53;;;12.18;96.82
11542;BME280;5827;49.482;7.716;2023-04-30T03:48:15;99187.78;;;11.99;98.69
11542;BME280;5827;49.482;7.716;2023-04-30T03:50:17;99190.22;;;12.01;98.23
11542;BME280;5827;49.482;7.716;2023-04-30T03:52:19;99199.03;;;12.30;95.64
11542;BME280;5827;49.482;7.716;2023-04-30T03:54:22;99192.38;;;12.15;96.81
11542;BME280;5827;49.482;7.716;2023-04-30T03:56:23;99195.94;;;12.21;96.80
11542;BME280;5827;49.482;7.716;2023-04-30T03:58:26;99188.72;;;12.38;95.77
11542;BME280;5827;49.482;7.716;2023-04-30T04:00:27;99189.44;;;12.17;96.61
11542;BME280;5827;49.482;7.716;2023-04-30T04:02:30;99196.50;;;12.23;96.97
11542;BME280;5827;49.482;7.716;2023-04-30T04:04:31;99196.69;;;12.33;95.95
11542;BME280;5827;49.482;7.716;2023-04-30T04:06:33;99198.13;;;12.41;95.67
11542;BME280;5827;49.482;7.716;2023-04-30T04:08:35;99190.50;;;12.16;96.61
11542;BME280;5827;49.482;7.716;2023-04-30T04:10:38;99188.63;;;12.33;96.04
11542;BME280;5827;49.482;7.716;2023-04-30T04:12:40;99197.97;;;12.14;96.23
11542;BME280;5827;49.482;7.716;2023-04-30T04:14:41;99190.31;;;12.23;96.58
11542;BME280;5827;49.482;7.716;2023-04-30T04:16:43;99201.06;;;12.06;96.41
11542;BME280;5827;49.482;7.716;2023-04-30T04:18:44;99195.19;;;12.09;96.71
11542;BME280;5827;49.482;7.716;2023-04-30T04:20:46;99202.56;;;11.85;97.58
11542;BME280;5827;49.482;7.716;2023-04-30T04:22:47;99201.28;;;11.87;98.40
11542;BME280;5827;49.482;7.716;2023-04-30T04:24:49;99200.34;;;12.10;97.72
11542;BME280;5827;49.482;7.716;2023-04-30T04:26:52;99203.63;;;11.84;97.84
11542;BME280;5827;49.482;7.716;2023-04-30T04:28:53;99206.94;;;11.91;97.93
11542;BME280;5827;49.482;7.716;2023-04-30T04:30:55;99208.94;;;12.12;96.35
11542;BME280;5827;49.482;7.716;2023-04-30T04:32:57;99204.88;;;11.93;98.31
11542;BME280;5827;49.482;7.716;2023-04-30T04:34:59;99204.66;;;12.11;96.44
11542;BME280;5827;49.482;7.716;2023-04-30T04:37:01;99210.56;;;12.13;96.51
11542;BME280;5827;49.482;7.716;2023-04-30T04:39:02;99203.97;;;12.04;97.61
11542;BME280;5827;49.482;7.716;2023-04-30T04:41:04;99207.03;;;12.25;96.48
11542;BME280;5827;49.482;7.716;2023-04-30T04:43:07;99206.53;;;12.11;96.07
11542;BME280;5827;49.482;7.716;2023-04-30T04:45:09;99202.59;;;11.73;98.31
11542;BME280;5827;49.482;7.716;2023-04-30T04:47:11;99201.59;;;11.91;98.15
11542;BME280;5827;49.482;7.716;2023-04-30T04:49:12;99197.97;;;12.14;97.13
11542;BME280;5827;49.482;7.716;2023-04-30T04:51:14;99206.53;;;12.11;97.07
11542;BME280;5827;49.482;7.716;2023-04-30T04:53:16;99199.66;;;12.03;98.23
11542;BME280;5827;49.482;7.716;2023-04-30T04:55:18;99205.28;;;12.18;96.33
11542;BME280;5827;49.482;7.716;2023-04-30T04:57:19;99209.69;;;12.08;97.12
11542;BME280;5827;49.482;7.716;2023-04-30T04:59:22;99205.41;;;11.95;97.48
11542;BME280;5827;49.482;7.716;2023-04-30T05:01:23;99208.03;;;11.90;97.67
11542;BME280;5827;49.482;7.716;2023-04-30T05:03:25;99205.84;;;12.04;97.81
11542;BME280;5827;49.482;7.716;2023-04-30T05:05:27;99202.03;;;12.16;97.55
11542;BME280;5827;49.482;7.716;2023-04-30T05:07:28;99217.09;;;12.17;97.20
11542;BME280;5827;49.482;7.716;2023-04-30T05:09:30;99211.31;;;12.09;96.53
11542;BME280;5827;49.482;7.716;2023-04-30T05:11:31;99214.75;;;12.21;96.90
11542;BME280;5827;49.482;7.716;2023-04-30T05:13:33;99225.44;;;12.33;95.42
11542;BME280;5827;49.482;7.716;2023-04-30T05:15:36;99220.69;;;12.23;96.15
11542;BME280;5827;49.482;7.716;2023-04-30T05:17:37;99223.38;;;12.40;95.08
11542;BME280;5827;49.482;7.716;2023-04-30T05:19:39;99222.63;;;12.28;94.99
11542;BME280;5827;49.482;7.716;2023-04-30T05:21:41;99220.63;;;12.35;96.33
11542;BME280;5827;49.482;7.716;2023-04-30T05:23:43;99217.75;;;12.41;96.07
11542;BME280;5827;49.482;7.716;2023-04-30T05:25:45;99226.81;;;12.35;94.81
11542;BME280;5827;49.482;7.716;2023-04-30T05:27:46;99225.31;;;12.28;94.50
11542;BME280;5827;49.482;7.716;2023-04-30T05:29:48;99220.16;;;12.09;95.69
11542;BME280;5827;49.482;7.716;2023-04-30T05:31:50;99223.47;;;12.45;94.57
11542;BME280;5827;49.482;7.716;2023-04-30T05:33:52;99225.09;;;12.29;95.36
11542;BME280;5827;49.482;7.716;2023-04-30T05:35:53;99221.81;;;12.10;95.78
11542;BME280;5827;49.482;7.716;2023-04-30T05:37:55;99223.03;;;12.03;96.14
11542;BME280;5827;49.482;7.716;2023-04-30T05:39:56;99223.03;;;12.03;95.77
11542;BME280;5827;49.482;7.716;2023-04-30T05:41:58;99223.06;;;12.19;95.45
11542;BME280;5827;49.482;7.716;2023-04-30T05:44:01;99224.59;;;12.15;95.19
11542;BME280;5827;49.482;7.716;2023-04-30T05:46:04;99230.38;;;12.24;96.06
11542;BME280;5827;49.482;7.716;2023-04-30T05:48:07;99221.81;;;12.27;95.44
11542;BME280;5827;49.482;7.716;2023-04-30T05:50:08;99221.84;;;12.61;93.89
11542;BME280;5827;49.482;7.716;2023-04-30T05:52:10;99224.34;;;12.67;93.20
11542;BME280;5827;49.482;7.716;2023-04-30T05:54:13;99231.03;;;12.82;92.45
11542;BME280;5827;49.482;7.716;2023-04-30T05:56:14;99228.69;;;12.35;93.40
11542;BME280;5827;49.482;7.716;2023-04-30T05:58:16;99228.59;;;12.80;92.43
11542;BME280;5827;49.482;7.716;2023-04-30T06:00:18;99227.94;;;12.73;91.89
11542;BME280;5827;49.482;7.716;2023-04-30T06:02:19;99225.09;;;12.63;93.25
11542;BME280;5827;49.482;7.716;2023-04-30T06:04:22;99233.47;;;12.50;93.93
11542;BME280;5827;49.482;7.716;2023-04-30T06:06:23;99230.34;;;12.91;92.64
11542;BME280;5827;49.482;7.716;2023-04-30T06:08:25;99230.81;;;12.66;92.13
11542;BME280;5827;49.482;7.716;2023-04-30T06:10:26;99229.81;;;12.72;93.19
11542;BME280;5827;49.482;7.716;2023-04-30T06:12:28;99236.91;;;12.79;91.53
11542;BME280;5827;49.482;7.716;2023-04-30T06:14:30;99235.53;;;12.76;90.92
11542;BME280;5827;49.482;7.716;2023-04-30T06:16:31;99232.09;;;12.81;90.69
11542;BME280;5827;49.482;7.716;2023-04-30T06:18:33;99240.69;;;13.16;89.45
11542;BME280;5827;49.482;7.716;2023-04-30T06:20:36;99237.59;;;13.08;88.86
11542;BME280;5827;49.482;7.716;2023-04-30T06:22:37;99240.34;;;13.13;88.64
11542;BME280;5827;49.482;7.716;2023-04-30T06:24:40;99240.03;;;13.26;88.64
11542;BME280;5827;49.482;7.716;2023-04-30T06:26:41;99238.31;;;13.20;88.15
11542;BME280;5827;49.482;7.716;2023-04-30T06:28:43;99236.03;;;13.51;87.33
11542;BME280;5827;49.482;7.716;2023-04-30T06:30:46;99237.34;;;13.70;86.30
11542;BME280;5827;49.482;7.716;2023-04-30T06:32:47;99244.81;;;13.90;86.34
11542;BME280;5827;49.482;7.716;2023-04-30T06:34:49;99244.66;;;13.75;84.11
11542;BME280;5827;49.482;7.716;2023-04-30T06:36:52;99241.41;;;13.72;85.55
11542;BME280;5827;49.482;7.716;2023-04-30T06:38:53;99240.56;;;13.94;85.97
11542;BME280;5827;49.482;7.716;2023-04-30T06:40:55;99243.03;;;14.01;85.65
11542;BME280;5827;49.482;7.716;2023-04-30T06:42:56;99240.31;;;13.73;84.65
11542;BME280;5827;49.482;7.716;2023-04-30T06:44:58;99255.66;;;13.51;84.33
11542;BME280;5827;49.482;7.716;2023-04-30T06:47:00;99255.53;;;14.07;82.95
11542;BME280;5827;49.482;7.716;2023-04-30T06:49:01;99250.50;;;13.66;84.04
11542;BME280;5827;49.482;7.716;2023-04-30T06:51:03;99240.53;;;13.67;86.78
11542;BME280;5827;49.482;7.716;2023-04-30T06:53:06;99245.00;;;13.83;86.01
11542;BME280;5827;49.482;7.716;2023-04-30T06:55:07;99251.63;;;14.52;84.68
11542;BME280;5827;49.482;7.716;2023-04-30T06:57:09;99262.91;;;14.76;80.52
11542;BME280;5827;49.482;7.716;2023-04-30T06:59:11;99266.44;;;15.23;79.60
11542;BME280;5827;49.482;7.716;2023-04-30T07:01:12;99264.53;;;15.19;80.14
11542;BME280;5827;49.482;7.716;2023-04-30T07:03:14;99273.59;;;14.65;79.00
11542;BME280;5827;49.482;7.716;2023-04-30T07:05:15;99260.72;;;14.72;78.60
11542;BME280;5827;49.482;7.716;2023-04-30T07:07:17;99264.53;;;14.77;77.59
11542;BME280;5827;49.482;7.716;2023-04-30T07:09:20;99260.41;;;14.69;80.03
11542;BME280;5827;49.482;7.716;2023-04-30T07:11:22;99264.94;;;15.00;78.67
11542;BME280;5827;49.482;7.716;2023-04-30T07:13:23;99267.63;;;15.48;77.42
11542;BME280;5827;49.482;7.716;2023-04-30T07:15:25;99265.97;;;15.32;75.33
11542;BME280;5827;49.482;7.716;2023-04-30T07:17:27;99264.25;;;14.78;76.77
11542;BME280;5827;49.482;7.716;2023-04-30T07:19:28;99264.81;;;15.17;77.37
11542;BME280;5827;49.482;7.716;2023-04-30T07:21:30;99263.22;;;15.79;75.66
11542;BME280;5827;49.482;7.716;2023-04-30T07:23:31;99261.91;;;15.87;74.26
11542;BME280;5827;49.482;7.716;2023-04-30T07:25:34;99264.34;;;15.93;75.08
11542;BME280;5827;49.482;7.716;2023-04-30T07:27:36;99272.72;;;15.87;73.55
11542;BME280;5827;49.482;7.716;2023-04-30T07:29:37;99276.88;;;15.62;71.23
11542;BME280;5827;49.482;7.716;2023-04-30T07:31:39;99270.88;;;15.45;74.95
11542;BME280;5827;49.482;7.716;2023-04-30T07:33:40;99270.63;;;14.99;75.03
11542;BME280;5827;49.482;7.716;2023-04-30T07:35:43;99273.34;;;15.57;73.79
11542;BME280;5827;49.482;7.716;2023-04-30T07:37:45;99271.09;;;15.86;72.73
11542;BME280;5827;49.482;7.716;2023-04-30T07:39:47;99272.94;;;15.80;71.76
11542;BME280;5827;49.482;7.716;2023-04-30T07:41:49;99277.22;;;15.66;73.21
11542;BME280;5827;49.482;7.716;2023-04-30T07:43:51;99271.56;;;14.83;73.07
11542;BME280;5827;49.482;7.716;2023-04-30T07:45:52;99273.31;;;14.62;75.28
11542;BME280;5827;49.482;7.716;2023-04-30T07:47:54;99260.78;;;15.30;76.50
11542;BME280;5827;49.482;7.716;2023-04-30T07:49:55;99270.28;;;15.38;73.09
11542;BME280;5827;49.482;7.716;2023-04-30T07:51:57;99265.06;;;15.21;73.82
11542;BME280;5827;49.482;7.716;2023-04-30T07:54:00;99266.38;;;15.13;74.57
11542;BME280;5827;49.482;7.716;2023-04-30T07:56:02;99273.75;;;15.28;74.29
11542;BME280;5827;49.482;7.716;2023-04-30T07:58:05;99268.47;;;15.01;74.57
11542;BME280;5827;49.482;7.716;2023-04-30T08:00:07;99269.56;;;15.05;74.41
11542;BME280;5827;49.482;7.716;2023-04-30T08:02:09;99265.81;;;14.69;75.40
11542;BME280;5827;49.482;7.716;2023-04-30T08:04:10;99266.72;;;15.22;75.51
11542;BME280;5827;49.482;7.716;2023-04-30T08:06:12;99263.31;;;15.47;76.51
11542;BME280;5827;49.482;7.716;2023-04-30T08:08:14;99255.59;;;15.66;72.88
11542;BME280;5827;49.482;7.716;2023-04-30T08:10:15;99273.22;;;15.84;71.90
11542;BME280;5827;49.482;7.716;2023-04-30T08:12:16;99282.81;;;16.27;70.38
11542;BME280;5827;49.482;7.716;2023-04-30T08:14:19;99276.00;;;16.04;71.79
11542;BME280;5827;49.482;7.716;2023-04-30T08:16:21;99270.09;;;16.27;69.07
11542;BME280;5827;49.482;7.716;2023-04-30T08:18:23;99273.03;;;16.21;72.93
11542;BME280;5827;49.482;7.716;2023-04-30T08:20:24;99288.91;;;15.87;68.29
11542;BME280;5827;49.482;7.716;2023-04-30T08:22:26;99278.13;;;15.97;69.47
11542;BME280;5827;49.482;7.716;2023-04-30T08:24:27;99281.41;;;16.09;69.42
11542;BME280;5827;49.482;7.716;2023-04-30T08:26:29;99286.50;;;15.95;67.71
11542;BME280;5827;49.482;7.716;2023-04-30T08:28:30;99277.63;;;16.00;69.78
11542;BME280;5827;49.482;7.716;2023-04-30T08:30:33;99282.22;;;16.10;68.89
11542;BME280;5827;49.482;7.716;2023-04-30T08:32:35;99291.97;;;16.21;66.73
11542;BME280;5827;49.482;7.716;2023-04-30T08:34:36;99290.94;;;16.42;67.56
11542;BME280;5827;49.482;7.716;2023-04-30T08:36:39;99282.28;;;16.45;68.06
11542;BME280;5827;49.482;7.716;2023-04-30T08:38:41;99286.81;;;16.09;67.56
11542;BME280;5827;49.482;7.716;2023-04-30T08:40:47;99287.44;;;16.47;67.39
11542;BME280;5827;49.482;7.716;2023-04-30T08:42:58;99293.66;;;16.47;66.24
11542;BME280;5827;49.482;7.716;2023-04-30T08:45:07;99296.88;;;16.29;65.09
11542;BME280;5827;49.482;7.716;2023-04-30T08:47:13;99287.34;;;16.06;66.90
11542;BME280;5827;49.482;7.716;2023-04-30T08:49:16;99289.56;;;16.30;65.84
11542;BME280;5827;49.482;7.716;2023-04-30T08:51:17;99286.84;;;16.35;67.08
11542;BME280;5827;49.482;7.716;2023-04-30T08:53:20;99286.38;;;16.68;65.01
11542;BME280;5827;49.482;7.716;2023-04-30T08:55:22;99292.31;;;16.45;64.57
11542;BME280;5827;49.482;7.716;2023-04-30T08:57:25;99288.50;;;16.36;64.15
11542;BME280;5827;49.482;7.716;2023-04-30T08:59:27;99294.81;;;15.73;63.85
11542;BME280;5827;49.482;7.716;2023-04-30T09:01:28;99290.88;;;16.17;62.30
11542;BME280;5827;49.482;7.716;2023-04-30T09:03:31;99309.88;;;16.47;61.13
11542;BME280;5827;49.482;7.716;2023-04-30T09:05:33;99298.00;;;17.10;60.25
11542;BME280;5827;49.482;7.716;2023-04-30T09:07:35;99314.75;;;16.56;59.22
11542;BME280;5827;49.482;7.716;2023-04-30T09:09:39;99309.00;;;16.21;60.23
11542;BME280;5827;49.482;7.716;2023-04-30T09:11:41;99298.47;;;16.20;61.42
11542;BME280;5827;49.482;7.716;2023-04-30T09:13:43;99294.38;;;16.07;60.42
11542;BME280;5827;49.482;7.716;2023-04-30T09:15:44;99291.97;;;16.26;62.35
11542;BME280;5827;49.482;7.716;2023-04-30T09:18:05;99301.47;;;16.29;60.42
11542;BME280;5827;49.482;7.716;2023-04-30T09:20:10;99305.28;;;16.48;57.93
11542;BME280;5827;49.482;7.716;2023-04-30T09:22:18;99306.09;;;16.48;58.03
11542;BME280;5827;49.482;7.716;2023-04-30T09:24:20;99304.75;;;16.51;58.44
11542;BME280;5827;49.482;7.716;2023-04-30T09:26:26;99309.88;;;16.52;57.15
11542;BME280;5827;49.482;7.716;2023-04-30T09:28:28;99310.97;;;16.51;57.51
11542;BME280;5827;49.482;7.716;2023-04-30T09:30:30;99313.59;;;16.21;54.52
11542;BME280;5827;49.482;7.716;2023-04-30T09:32:32;99316.94;;;16.59;55.50
11542;BME280;5827;49.482;7.716;2023-04-30T09:34:34;99319.97;;;16.77;53.01
11542;BME280;5827;49.482;7.716;2023-04-30T09:36:50;99314.38;;;16.11;55.48
11542;BME280;5827;49.482;7.716;2023-04-30T09:38:52;99307.19;;;16.58;53.73
11542;BME280;5827;49.482;7.716;2023-04-30T09:40:54;99317.19;;;16.67;53.82
11542;BME280;5827;49.482;7.716;2023-04-30T09:42:57;99310.66;;;16.27;53.69
11542;BME280;5827;49.482;7.716;2023-04-30T09:44:59;99314.75;;;16.56;53.87
11542;BME280;5827;49.482;7.716;2023-04-30T09:47:00;99304.78;;;16.76;54.16
11542;BME280;5827;49.482;7.716;2023-04-30T09:49:04;99313.19;;;16.75;54.72
11542;BME280;5827;49.482;7.716;2023-04-30T09:51:06;99306.88;;;16.34;53.80
11542;BME280;5827;49.482;7.716;2023-04-30T09:53:11;99308.50;;;16.30;55.35
11542;BME280;5827;49.482;7.716;2023-04-30T09:55:13;99304.16;;;16.34;54.72
11542;BME280;5827;49.482;7.716;2023-04-30T09:57:15;99307.97;;;16.53;54.61
11542;BME280;5827;49.482;7.716;2023-04-30T09:59:20;99308.75;;;16.23;54.53
11542;BME280;5827;49.482;7.716;2023-04-30T10:01:24;99306.94;;;16.69;54.50
11542;BME280;5827;49.482;7.716;2023-04-30T10:03:26;99296.41;;;16.73;56.00
11542;BME280;5827;49.482;7.716;2023-04-30T10:05:29;99296.06;;;16.49;56.40
11542;BME280;5827;49.482;7.716;2023-04-30T10:07:34;99296.09;;;16.64;56.44
11542;BME280;5827;49.482;7.716;2023-04-30T10:09:40;99297.94;;;16.28;57.02
11542;BME280;5827;49.482;7.716;2023-04-30T10:11:45;99304.22;;;16.54;57.00
11542;BME280;5827;49.482;7.716;2023-04-30T10:13:53;99295.97;;;15.98;57.44
11542;BME280;5827;49.482;7.716;2023-04-30T10:15:58;99288.75;;;16.39;58.95
11542;BME280;5827;49.482;7.716;2023-04-30T10:18:03;99288.78;;;16.55;58.72
11542;BME280;5827;49.482;7.716;2023-04-30T10:20:08;99290.69;;;16.69;57.64
11542;BME280;5827;49.482;7.716;2023-04-30T10:22:10;99289.38;;;16.77;58.10
11542;BME280;5827;49.482;7.716;2023-04-30T10:24:13;99284.75;;;16.93;57.24
11542;BME280;5827;49.482;7.716;2023-04-30T10:26:16;99284.19;;;16.60;59.25
11542;BME280;5827;49.482;7.716;2023-04-30T10:28:18;99282.59;;;16.85;57.73
11542;BME280;5827;49.482;7.716;2023-04-30T10:30:21;99286.13;;;16.95;57.25
11542;BME280;5827;49.482;7.716;2023-04-30T10:32:23;99279.28;;;17.13;57.06
11542;BME280;5827;49.482;7.716;2023-04-30T10:34:34;99277.44;;;16.68;57.22
11542;BME280;5827;49.482;7.716;2023-04-30T10:36:39;99273.66;;;16.64;58.07
11542;BME280;5827;49.482;7.716;2023-04-30T10:38:43;99270.09;;;16.43;58.77
11542;BME280;5827;49.482;7.716;2023-04-30T10:40:45;99267.16;;;16.60;59.27
11542;BME280;5827;49.482;7.716;2023-04-30T10:42:48;99269.03;;;16.90;58.06
11542;BME280;5827;49.482;7.716;2023-04-30T10:44:50;99260.16;;;16.74;59.48
11542;BME280;5827;49.482;7.716;2023-04-30T10:46:57;99257.69;;;16.93;58.59
11542;BME280;5827;49.482;7.716;2023-04-30T10:48:59;99262.84;;;16.74;59.58
11542;BME280;5827;49.482;7.716;2023-04-30T10:51:01;99246.88;;;16.88;59.96
11542;BME280;5827;49.482;7.716;2023-04-30T10:53:03;99244.66;;;17.10;59.04
11542;BME280;5827;49.482;7.716;2023-04-30T10:55:06;99245.59;;;17.50;59.10
11542;BME280;5827;49.482;7.716;2023-04-30T10:57:10;99243.19;;;17.48;58.64
11542;BME280;5827;49.482;7.716;2023-04-30T10:59:14;99249.22;;;17.25;58.13